Time;durP1;ratioP1;P1;durP2;ratioP2;P2;SDS_P1;SDS_P2;PMS_P1;PMS_P2;Temp;Humidity;BMP_temperature;BMP_pressure;BME280_temperature;BME280_humidity;BME280_pressure;Samples;Min_cycle;Max_cycle;Signal;HPM_P1;HPM_P2
2021/12/25 00:00:52;;;;;;;13.55;5.93;;;17.70;57.40;;;;;;5020652;28;20624;-70
2021/12/25 00:03:17;;;;;;;12.82;5.32;;;17.80;57.40;;;;;;5003077;28;20871;-72
2021/12/25 00:05:44;;;;;;;9.90;5.50;;;17.70;57.30;;;;;;5003853;28;20026;-72
2021/12/25 00:08:09;;;;;;;11.20;5.15;;;17.70;57.30;;;;;;5004789;28;20117;-71
2021/12/25 00:10:35;;;;;;;15.95;6.78;;;17.70;57.30;;;;;;5005178;28;20121;-73
2021/12/25 00:13:00;;;;;;;10.90;4.63;;;17.70;57.20;;;;;;4987885;28;20032;-73
2021/12/25 00:15:26;;;;;;;10.75;5.60;;;17.70;57.30;;;;;;5020115;28;20459;-73
2021/12/25 00:17:52;;;;;;;11.70;4.85;;;17.70;57.20;;;;;;5003820;28;20034;-71
2021/12/25 00:20:17;;;;;;;9.10;4.53;;;17.70;57.20;;;;;;5004338;28;20034;-71
2021/12/25 00:22:43;;;;;;;10.35;4.35;;;17.70;57.10;;;;;;5003546;28;20030;-72
2021/12/25 00:25:09;;;;;;;7.97;4.60;;;17.70;57.10;;;;;;5003362;28;20671;-71
2021/12/25 00:28:01;;;;;;;7.20;4.30;;;17.70;57.10;;;;;;5004058;28;20539;-72
2021/12/25 00:30:37;;;;;;;7.35;4.10;;;17.70;57.10;;;;;;5003888;28;20030;-72
2021/12/25 00:33:29;;;;;;;10.05;3.97;;;17.70;57.10;;;;;;5003268;28;20061;-72
2021/12/25 00:35:51;;;;;;;10.63;5.32;;;17.70;57.20;;;;;;5003453;28;20030;-74
2021/12/25 00:38:16;;;;;;;12.48;3.95;;;17.70;57.20;;;;;;5014110;22;20034;-59
2021/12/25 00:40:42;;;;;;;7.32;3.60;;;17.70;57.30;;;;;;5001227;28;20022;-62
2021/12/25 00:43:07;;;;;;;7.70;3.65;;;17.70;57.20;;;;;;5006879;28;20025;-63
2021/12/25 00:45:33;;;;;;;8.02;3.75;;;17.70;57.90;;;;;;5006558;28;20022;-61
2021/12/25 00:47:58;;;;;;;7.03;3.28;;;17.70;57.20;;;;;;5006012;28;20057;-59
2021/12/25 00:50:24;;;;;;;7.18;3.55;;;17.70;57.30;;;;;;5006470;28;20550;-60
2021/12/25 00:52:49;;;;;;;8.27;4.07;;;17.70;57.20;;;;;;5006550;28;20033;-60
2021/12/25 00:55:15;;;;;;;6.85;3.90;;;17.70;57.10;;;;;;5006129;28;20045;-59
2021/12/25 00:57:40;;;;;;;6.22;3.15;;;17.70;57.10;;;;;;5006261;28;20096;-60
2021/12/25 01:00:09;;;;;;;5.53;3.33;;;17.70;57.00;;;;;;5005934;28;20439;-63
2021/12/25 01:02:37;;;;;;;5.40;3.03;;;17.70;56.90;;;;;;5004873;28;20051;-62
2021/12/25 01:05:03;;;;;;;7.00;3.50;;;17.80;56.80;;;;;;5005808;28;20084;-62
2021/12/25 01:07:28;;;;;;;5.93;3.05;;;17.80;56.70;;;;;;5006433;28;20097;-61
2021/12/25 01:09:54;;;;;;;5.22;2.80;;;17.80;56.60;;;;;;5005552;28;20022;-63
2021/12/25 01:12:19;;;;;;;5.75;3.17;;;17.80;56.60;;;;;;5005522;28;20422;-64
2021/12/25 01:14:51;;;;;;;5.15;3.28;;;17.80;56.60;;;;;;5005726;28;20026;-65
2021/12/25 01:17:32;;;;;;;6.05;3.00;;;17.80;56.50;;;;;;5004811;28;20024;-63
2021/12/25 01:30:11;;;;;;;3.92;2.33;;;17.80;56.30;;;;;;5006261;28;20026;-66
2021/12/25 01:38:05;;;;;;;4.93;2.70;;;17.80;56.10;;;;;;5005869;28;20026;-61
2021/12/25 01:48:35;;;;;;;4.53;1.90;;;17.80;55.90;;;;;;5008838;28;20084;-61
2021/12/25 01:51:00;;;;;;;4.68;2.28;;;17.90;55.90;;;;;;5009841;28;20025;-63
2021/12/25 01:53:26;;;;;;;2.85;2.03;;;17.90;55.80;;;;;;5009803;28;20049;-59
2021/12/25 01:55:51;;;;;;;3.70;2.00;;;17.80;55.80;;;;;;5008149;28;20540;-63
2021/12/25 01:58:17;;;;;;;4.50;2.13;;;17.80;55.80;;;;;;5008950;28;20044;-62
2021/12/25 02:00:48;;;;;;;4.03;1.77;;;17.80;55.80;;;;;;5009150;28;20037;-59
2021/12/25 02:03:14;;;;;;;4.50;2.03;;;17.90;56.00;;;;;;5009628;28;20045;-62
2021/12/25 02:05:40;;;;;;;3.20;1.90;;;17.80;56.00;;;;;;5009565;28;20064;-62
2021/12/25 02:08:05;;;;;;;3.58;2.08;;;17.80;55.90;;;;;;5009723;28;20053;-63
2021/12/25 02:10:31;;;;;;;4.13;1.90;;;17.90;56.00;;;;;;5008878;28;20025;-59
2021/12/25 02:12:56;;;;;;;3.65;1.77;;;17.80;56.00;;;;;;5008762;28;20084;-63
2021/12/25 02:15:24;;;;;;;3.45;1.92;;;17.80;56.00;;;;;;5008999;28;20030;-62
2021/12/25 02:20:34;;;;;;;2.30;1.48;;;17.80;56.10;;;;;;5009340;28;20634;-63
2021/12/25 02:23:03;;;;;;;4.10;2.10;;;17.80;56.10;;;;;;5027764;22;20033;-61
2021/12/25 02:25:31;;;;;;;2.88;1.83;;;17.80;56.20;;;;;;5026937;28;20017;-61
2021/12/25 02:27:57;;;;;;;2.63;1.50;;;17.80;56.10;;;;;;5028121;28;20018;-64
2021/12/25 02:30:22;;;;;;;2.38;1.55;;;17.70;56.10;;;;;;5028090;28;20021;-63
2021/12/25 02:32:48;;;;;;;4.03;1.90;;;17.70;56.00;;;;;;5019263;28;20624;-63
2021/12/25 02:35:14;;;;;;;3.53;1.83;;;17.70;56.00;;;;;;5009215;28;20526;-63
2021/12/25 02:37:40;;;;;;;2.58;1.38;;;17.70;56.00;;;;;;5008913;28;20639;-63
2021/12/25 02:40:07;;;;;;;3.33;1.77;;;17.70;56.10;;;;;;5009915;28;20060;-63
2021/12/25 02:42:34;;;;;;;3.08;1.83;;;17.70;56.20;;;;;;5003324;28;20029;-63
2021/12/25 02:45:00;;;;;;;3.30;1.90;;;17.70;56.30;;;;;;5011616;28;20552;-63
2021/12/25 02:47:25;;;;;;;2.97;1.75;;;17.70;56.30;;;;;;5007746;28;20057;-63
2021/12/25 02:49:51;;;;;;;2.47;1.55;;;17.80;56.30;;;;;;5008670;28;20033;-62
2021/12/25 02:52:17;;;;;;;3.10;1.77;;;17.80;56.20;;;;;;5004214;28;20030;-62
2021/12/25 02:54:43;;;;;;;3.53;1.52;;;17.80;56.20;;;;;;5007076;28;20026;-62
2021/12/25 02:57:09;;;;;;;2.25;1.50;;;17.80;56.10;;;;;;5007660;28;20121;-62
2021/12/25 02:59:35;;;;;;;1.95;1.30;;;17.80;56.10;;;;;;5007862;28;20026;-62
2021/12/25 03:02:05;;;;;;;2.05;1.50;;;17.80;56.10;;;;;;5007371;28;20087;-61
2021/12/25 03:04:31;;;;;;;1.90;1.27;;;17.80;56.00;;;;;;5007958;28;20022;-62
2021/12/25 03:06:56;;;;;;;2.00;1.30;;;17.80;56.00;;;;;;5008332;28;20034;-62
2021/12/25 03:09:22;;;;;;;3.35;1.70;;;17.80;55.90;;;;;;5007748;28;20568;-62
2021/12/25 03:11:47;;;;;;;3.70;1.48;;;17.80;56.00;;;;;;5007869;28;20026;-62
2021/12/25 03:14:30;;;;;;;2.00;1.50;;;17.80;55.80;;;;;;5007660;28;20022;-62
2021/12/25 03:16:56;;;;;;;3.75;1.20;;;17.80;55.80;;;;;;5008033;28;20022;-62
2021/12/25 03:19:28;;;;;;;5.15;1.58;;;17.90;55.80;;;;;;5006342;28;20433;-61
2021/12/25 03:21:54;;;;;;;2.72;1.42;;;17.80;55.70;;;;;;5007676;28;20026;-60
2021/12/25 03:24:19;;;;;;;3.55;1.77;;;17.80;55.60;;;;;;5007743;28;20036;-60
2021/12/25 03:26:45;;;;;;;1.83;1.17;;;17.80;55.60;;;;;;5006423;28;20445;-61
2021/12/25 03:29:10;;;;;;;2.17;1.10;;;17.80;55.60;;;;;;5007306;28;20053;-59
2021/12/25 03:31:36;;;;;;;1.55;1.17;;;17.80;55.50;;;;;;5008080;28;20057;-60
2021/12/25 03:34:01;;;;;;;2.20;1.17;;;17.80;55.50;;;;;;5007138;28;20010;-59
2021/12/25 03:36:27;;;;;;;1.55;0.85;;;17.80;55.40;;;;;;5008034;28;20029;-62
2021/12/25 03:38:53;;;;;;;2.20;1.23;;;17.80;55.40;;;;;;5007059;28;20029;-62
2021/12/25 03:41:19;;;;;;;2.15;1.20;;;17.80;55.30;;;;;;5006870;28;20026;-61
2021/12/25 03:43:45;;;;;;;1.63;0.90;;;17.70;55.20;;;;;;5003244;28;20482;-61
2021/12/25 03:46:12;;;;;;;1.80;1.38;;;17.80;55.20;;;;;;5006838;28;20101;-61
2021/12/25 03:48:57;;;;;;;1.55;0.90;;;17.80;55.30;;;;;;5006690;28;20014;-61
2021/12/25 03:59:35;;;;;;;1.83;0.95;;;17.70;54.90;;;;;;5005852;28;20101;-61
2021/12/25 04:02:07;;;;;;;1.27;0.80;;;17.70;54.90;;;;;;5006353;28;20049;-61
2021/12/25 04:04:36;;;;;;;1.63;0.70;;;17.70;54.90;;;;;;5006756;28;20018;-61
2021/12/25 04:07:11;;;;;;;1.85;0.70;;;17.70;54.80;;;;;;5006048;28;20018;-61
2021/12/25 04:09:38;;;;;;;1.80;0.82;;;17.70;54.80;;;;;;5007145;28;20131;-61
2021/12/25 04:12:07;;;;;;;2.85;0.80;;;17.70;54.70;;;;;;5007096;28;20038;-61
2021/12/25 04:14:32;;;;;;;0.95;0.70;;;17.70;54.70;;;;;;5005979;28;20022;-61
2021/12/25 04:16:58;;;;;;;1.02;0.63;;;17.70;54.60;;;;;;5007119;28;20090;-61
2021/12/25 04:19:23;;;;;;;1.23;1.00;;;17.70;54.60;;;;;;5007149;28;20030;-62
2021/12/25 04:21:56;;;;;;;2.08;0.82;;;17.70;54.70;;;;;;5006915;28;20111;-61
2021/12/25 04:24:22;;;;;;;3.33;1.05;;;17.70;54.60;;;;;;4999295;28;20030;-61
2021/12/25 04:26:49;;;;;;;1.33;0.60;;;17.70;54.60;;;;;;5006694;28;20104;-61
2021/12/25 04:49:02;;;;;;;1.52;0.60;;;17.80;54.20;;;;;;5006141;28;20117;-61
2021/12/25 05:02:26;;;;;;;1.45;0.70;;;17.90;53.80;;;;;;5005895;28;20073;-63
2021/12/25 05:04:58;;;;;;;0.60;0.50;;;17.90;53.80;;;;;;5006051;28;20081;-63
2021/12/25 05:07:23;;;;;;;0.85;0.43;;;17.90;53.70;;;;;;5006231;28;20149;-63
2021/12/25 05:09:48;;;;;;;0.75;0.57;;;17.90;53.60;;;;;;5004154;28;20101;-63
2021/12/25 05:12:14;;;;;;;1.48;0.60;;;17.90;53.50;;;;;;5005544;28;20021;-63
2021/12/25 05:14:40;;;;;;;0.57;0.45;;;18.00;53.40;;;;;;5005522;28;20476;-63
2021/12/25 05:17:07;;;;;;;1.17;0.40;;;17.90;53.30;;;;;;5005404;28;20026;-63
2021/12/25 05:19:32;;;;;;;0.85;0.52;;;18.00;53.20;;;;;;5005343;28;20650;-63
2021/12/25 05:21:58;;;;;;;0.73;0.50;;;18.00;53.30;;;;;;5004249;28;20033;-64
2021/12/25 05:24:23;;;;;;;0.80;0.50;;;18.00;53.20;;;;;;5004880;28;20049;-63
2021/12/25 05:26:49;;;;;;;0.65;0.40;;;18.00;53.10;;;;;;5005695;28;20167;-63
2021/12/25 05:29:22;;;;;;;1.55;0.85;;;18.00;53.10;;;;;;5005512;28;20030;-63
2021/12/25 05:31:48;;;;;;;1.13;0.60;;;18.00;53.00;;;;;;5007062;28;20108;-64
2021/12/25 05:34:13;;;;;;;0.60;0.38;;;18.00;52.90;;;;;;5006279;28;20430;-62
2021/12/25 05:36:39;;;;;;;0.57;0.45;;;18.00;52.90;;;;;;5005681;28;20030;-60
2021/12/25 05:39:08;;;;;;;0.57;0.40;;;18.00;52.90;;;;;;5005746;28;20040;-61
2021/12/25 05:41:34;;;;;;;1.88;0.55;;;18.00;53.00;;;;;;5005048;28;20626;-61
2021/12/25 05:43:59;;;;;;;0.80;0.43;;;18.00;52.90;;;;;;5005267;28;20105;-61
2021/12/25 05:46:25;;;;;;;1.05;0.50;;;18.00;52.90;;;;;;5005410;28;20018;-61
2021/12/25 05:48:50;;;;;;;0.43;0.40;;;18.00;52.80;;;;;;5005606;28;20014;-61
2021/12/25 05:51:16;;;;;;;0.50;0.40;;;18.10;52.90;;;;;;5005313;28;20028;-65
2021/12/25 05:53:42;;;;;;;0.40;0.40;;;18.00;52.80;;;;;;5004971;28;20022;-61
2021/12/25 05:56:07;;;;;;;1.08;0.47;;;18.00;52.80;;;;;;5005228;28;20018;-60
2021/12/25 05:58:33;;;;;;;2.28;0.50;;;18.00;52.70;;;;;;5004990;28;20105;-61
2021/12/25 06:00:58;;;;;;;0.80;0.40;;;18.00;52.70;;;;;;5005328;28;20026;-61
2021/12/25 06:03:24;;;;;;;1.33;0.40;;;18.00;52.60;;;;;;5005122;28;20475;-61
2021/12/25 06:05:49;;;;;;;1.70;0.50;;;18.00;52.60;;;;;;5005182;28;20398;-61
2021/12/25 06:08:15;;;;;;;1.25;0.50;;;18.00;52.80;;;;;;5005355;28;20034;-62
2021/12/25 06:10:42;;;;;;;1.83;0.40;;;18.00;53.00;;;;;;5004063;28;20018;-62
2021/12/25 06:13:10;;;;;;;2.20;0.60;;;18.00;53.20;;;;;;4999854;28;20077;-63
2021/12/25 06:15:36;;;;;;;1.02;0.60;;;17.90;53.30;;;;;;5003159;28;20034;-62
2021/12/25 06:18:02;;;;;;;1.85;0.70;;;17.90;53.40;;;;;;5003644;28;20058;-59
2021/12/25 06:20:27;;;;;;;2.17;1.08;;;17.90;53.50;;;;;;5002879;28;20057;-61
2021/12/25 06:22:53;;;;;;;3.00;1.67;;;17.90;53.60;;;;;;5003023;28;20088;-61
2021/12/25 06:25:18;;;;;;;5.47;1.77;;;17.90;53.80;;;;;;5003090;28;20030;-61
2021/12/25 06:27:44;;;;;;;3.78;2.10;;;17.90;53.90;;;;;;5003272;28;20018;-63
2021/12/25 06:30:10;;;;;;;6.05;2.85;;;17.90;54.10;;;;;;5004559;28;20021;-63
2021/12/25 06:32:35;;;;;;;14.60;10.50;;;18.00;54.30;;;;;;5006045;28;20032;-59
2021/12/25 06:35:01;;;;;;;18.08;11.25;;;18.00;54.80;;;;;;5005663;28;20034;-61
2021/12/25 06:37:26;;;;;;;14.98;10.82;;;18.00;55.00;;;;;;5006220;28;20026;-63
2021/12/25 06:39:52;;;;;;;16.05;10.88;;;18.00;55.10;;;;;;5006560;28;20026;-62
2021/12/25 06:42:18;;;;;;;18.17;11.30;;;18.00;55.10;;;;;;5005458;28;20553;-63
2021/12/25 06:44:43;;;;;;;20.25;11.68;;;18.00;55.10;;;;;;5006598;28;20060;-62
2021/12/25 06:47:09;;;;;;;24.35;15.60;;;18.00;55.20;;;;;;5005800;28;20030;-61
2021/12/25 06:49:34;;;;;;;26.95;17.90;;;18.00;55.50;;;;;;5006156;28;20073;-60
2021/12/25 06:52:00;;;;;;;29.05;16.70;;;18.00;55.90;;;;;;5005846;28;20026;-62
2021/12/25 06:54:25;;;;;;;24.58;16.60;;;18.00;56.00;;;;;;5005884;28;20472;-63
2021/12/25 06:56:51;;;;;;;23.10;15.48;;;18.00;56.00;;;;;;5006029;28;20430;-62
2021/12/25 06:59:16;;;;;;;24.58;13.88;;;18.00;55.90;;;;;;5004627;28;20112;-62
2021/12/25 07:01:42;;;;;;;20.35;13.73;;;18.00;55.80;;;;;;5006112;28;20042;-62
2021/12/25 07:04:07;;;;;;;19.15;13.63;;;18.00;55.70;;;;;;5005726;28;20021;-64
2021/12/25 07:06:34;;;;;;;24.85;14.60;;;17.90;55.60;;;;;;5005581;28;20544;-62
2021/12/25 07:08:59;;;;;;;27.75;15.27;;;17.90;55.90;;;;;;5005505;28;20550;-61
2021/12/25 07:11:25;;;;;;;25.20;14.18;;;17.90;56.60;;;;;;5004000;28;20018;-64
2021/12/25 07:13:51;;;;;;;42.45;19.15;;;17.90;56.60;;;;;;5005511;28;20022;-63
2021/12/25 07:16:17;;;;;;;38.97;20.25;;;17.90;58.10;;;;;;5005730;28;20532;-64
2021/12/25 07:18:42;;;;;;;41.35;22.05;;;17.90;59.30;;;;;;5005517;28;20049;-63
2021/12/25 07:21:08;;;;;;;45.38;22.80;;;17.90;60.70;;;;;;5004692;28;20025;-64
2021/12/25 07:23:33;;;;;;;43.72;22.15;;;17.90;62.00;;;;;;5005931;28;20037;-65
2021/12/25 07:25:59;;;;;;;43.05;22.75;;;17.90;62.90;;;;;;5005317;28;20018;-64
2021/12/25 07:28:25;;;;;;;43.33;21.23;;;17.90;64.10;;;;;;5005255;28;20061;-63
2021/12/25 07:30:50;;;;;;;43.05;22.30;;;17.90;64.30;;;;;;5004243;28;20072;-63
2021/12/25 07:33:17;;;;;;;39.10;20.90;;;17.90;64.60;;;;;;5005596;28;20097;-62
2021/12/25 07:35:42;;;;;;;39.45;20.48;;;17.90;64.90;;;;;;5003588;28;20529;-63
2021/12/25 07:38:08;;;;;;;38.17;19.60;;;17.90;65.00;;;;;;5006041;28;20026;-63
2021/12/25 07:40:33;;;;;;;38.00;19.90;;;17.90;65.50;;;;;;5005089;28;20061;-61
2021/12/25 07:42:59;;;;;;;33.65;19.35;;;17.90;66.00;;;;;;5005146;28;20049;-63
2021/12/25 07:45:24;;;;;;;38.80;19.70;;;17.90;67.20;;;;;;5005760;28;20442;-65
2021/12/25 07:47:58;;;;;;;37.17;18.25;;;17.90;68.10;;;;;;5004944;28;20419;-62
2021/12/25 07:50:24;;;;;;;36.88;17.85;;;17.90;68.70;;;;;;5005221;28;20479;-62
2021/12/25 07:52:49;;;;;;;27.65;15.88;;;17.90;69.00;;;;;;5003726;28;20029;-63
2021/12/25 07:55:15;;;;;;;30.35;16.00;;;17.90;68.80;;;;;;5003603;28;20030;-63
2021/12/25 07:57:40;;;;;;;30.30;14.88;;;17.80;68.90;;;;;;5004813;28;20049;-61
2021/12/25 08:00:07;;;;;;;29.25;14.48;;;17.80;68.90;;;;;;5004511;28;20490;-62
2021/12/25 08:02:33;;;;;;;28.55;14.35;;;17.90;68.90;;;;;;5002988;28;20030;-62
2021/12/25 08:04:58;;;;;;;27.55;13.50;;;17.80;68.80;;;;;;5004811;28;20053;-61
2021/12/25 08:07:24;;;;;;;22.58;13.05;;;17.90;68.90;;;;;;5005312;28;20479;-63
2021/12/25 08:09:51;;;;;;;24.70;11.43;;;17.90;69.10;;;;;;5004085;28;20026;-63
2021/12/25 08:12:17;;;;;;;20.10;11.88;;;17.90;69.50;;;;;;5004521;28;20022;-63
2021/12/25 08:14:42;;;;;;;17.08;10.27;;;17.90;69.90;;;;;;5004015;28;20641;-64
2021/12/25 08:17:08;;;;;;;20.55;11.95;;;17.90;70.30;;;;;;5005585;28;20030;-63
2021/12/25 08:19:33;;;;;;;22.63;10.90;;;17.90;70.60;;;;;;5005098;28;20042;-61
2021/12/25 08:21:59;;;;;;;16.70;10.45;;;17.90;70.60;;;;;;5004996;28;20028;-64
2021/12/25 08:24:24;;;;;;;22.70;10.45;;;17.90;71.40;;;;;;5004860;28;20034;-65
2021/12/25 08:26:50;;;;;;;20.08;10.95;;;17.90;72.30;;;;;;5004486;28;20752;-63
2021/12/25 08:29:15;;;;;;;19.08;10.55;;;17.90;72.30;;;;;;5004952;28;20729;-63
2021/12/25 08:31:41;;;;;;;18.92;10.98;;;17.90;72.30;;;;;;5004362;28;20537;-65
2021/12/25 08:34:06;;;;;;;21.05;11.25;;;17.90;72.40;;;;;;5002342;28;20024;-65
2021/12/25 08:36:32;;;;;;;20.77;10.85;;;18.00;71.70;;;;;;5004369;28;20366;-63
2021/12/25 08:38:58;;;;;;;16.95;9.80;;;18.00;70.70;;;;;;5002264;28;20040;-64
2021/12/25 08:41:27;;;;;;;18.35;10.60;;;18.00;69.60;;;;;;5003061;28;20030;-64
2021/12/25 08:43:57;;;;;;;17.48;9.93;;;18.00;68.80;;;;;;4999989;28;20038;-64
2021/12/25 08:46:42;;;;;;;24.75;12.82;;;18.00;67.50;;;;;;4995876;28;20022;-63
2021/12/25 08:49:08;;;;;;;29.75;13.15;;;17.90;66.90;;;;;;4995679;28;20014;-64
2021/12/25 08:51:34;;;;;;;21.80;12.48;;;17.90;66.30;;;;;;5003463;28;20054;-64
2021/12/25 08:53:59;;;;;;;20.27;10.55;;;17.90;65.80;;;;;;5003634;28;20571;-65
2021/12/25 08:56:26;;;;;;;18.35;9.75;;;17.90;65.00;;;;;;5002764;28;20028;-64
2021/12/25 08:58:52;;;;;;;16.17;8.93;;;17.80;64.40;;;;;;5003474;28;20026;-63
2021/12/25 09:01:17;;;;;;;23.67;9.45;;;17.80;63.80;;;;;;5003327;28;20100;-63
2021/12/25 09:03:43;;;;;;;13.05;8.52;;;17.80;63.50;;;;;;5004141;28;20022;-63
2021/12/25 09:06:08;;;;;;;13.32;7.07;;;17.80;63.30;;;;;;5003666;28;20034;-63
2021/12/25 09:08:34;;;;;;;15.50;7.03;;;17.80;62.80;;;;;;5003431;28;20029;-62
2021/12/25 09:11:01;;;;;;;10.98;6.68;;;17.80;62.60;;;;;;5003353;28;20022;-62
2021/12/25 09:13:27;;;;;;;15.77;6.85;;;17.80;62.20;;;;;;5002853;28;20033;-62
2021/12/25 09:15:52;;;;;;;13.88;6.93;;;17.70;62.00;;;;;;5003924;28;20036;-63
2021/12/25 09:18:18;;;;;;;15.77;8.45;;;17.80;61.80;;;;;;5002809;28;20678;-65
2021/12/25 09:20:43;;;;;;;17.63;10.23;;;17.80;63.60;;;;;;5003557;28;20053;-64
2021/12/25 09:23:08;;;;;;;15.95;9.40;;;17.80;65.10;;;;;;5003297;28;20029;-63
2021/12/25 09:25:34;;;;;;;15.90;9.63;;;17.80;66.10;;;;;;5003572;28;20592;-63
2021/12/25 09:28:00;;;;;;;15.15;9.32;;;17.80;66.40;;;;;;5003075;28;20056;-63
2021/12/25 09:30:25;;;;;;;21.80;11.20;;;17.80;66.70;;;;;;5003031;28;20052;-64
2021/12/25 09:32:51;;;;;;;26.95;10.32;;;17.80;66.60;;;;;;5003114;28;20037;-64
2021/12/25 09:35:16;;;;;;;23.63;10.68;;;17.80;66.50;;;;;;5003166;28;20540;-63
2021/12/25 09:37:42;;;;;;;21.75;9.18;;;17.90;66.70;;;;;;5002981;28;20108;-63
2021/12/25 09:40:08;;;;;;;23.10;9.48;;;17.90;66.80;;;;;;5003013;28;20387;-65
2021/12/25 09:42:34;;;;;;;28.75;9.10;;;17.90;66.90;;;;;;5002955;28;20029;-63
2021/12/25 09:45:00;;;;;;;28.63;8.30;;;17.90;67.20;;;;;;5003464;28;20114;-64
2021/12/25 09:47:25;;;;;;;28.60;8.57;;;17.80;66.40;;;;;;5003778;28;20113;-64
2021/12/25 09:49:51;;;;;;;18.05;7.57;;;17.80;65.90;;;;;;5001749;28;20088;-65
2021/12/25 09:52:16;;;;;;;16.60;7.50;;;17.80;66.00;;;;;;5002397;28;20036;-64
2021/12/25 09:54:42;;;;;;;16.15;6.57;;;17.80;65.70;;;;;;5002738;28;20030;-63
2021/12/25 09:57:07;;;;;;;12.40;5.47;;;17.80;65.20;;;;;;5003315;28;20057;-66
2021/12/25 09:59:33;;;;;;;18.67;5.68;;;17.80;65.00;;;;;;5002936;28;20119;-63
2021/12/25 10:02:01;;;;;;;15.15;6.18;;;17.80;64.80;;;;;;5002459;28;20101;-64
2021/12/25 10:04:36;;;;;;;13.95;5.55;;;17.80;64.90;;;;;;5003849;28;20033;-65
2021/12/25 10:07:23;;;;;;;10.68;5.18;;;17.70;64.90;;;;;;5007456;28;20021;-65
2021/12/25 10:10:10;;;;;;;10.43;4.20;;;17.80;65.70;;;;;;5004236;28;20595;-65
2021/12/25 10:12:44;;;;;;;13.75;4.95;;;17.80;66.50;;;;;;5005404;28;20080;-64
2021/12/25 10:15:13;;;;;;;14.32;5.40;;;17.80;66.90;;;;;;5006806;28;20096;-64
2021/12/25 10:17:48;;;;;;;10.70;4.75;;;17.80;67.40;;;;;;5006750;28;20121;-67
2021/12/25 10:20:15;;;;;;;;;;;17.80;67.70;;;;;;5005371;28;20382;-65
2021/12/25 10:23:08;;;;;;;7.18;4.82;;;17.80;67.70;;;;;;5006638;28;20407;-64
2021/12/25 10:25:42;;;;;;;17.65;6.22;;;17.80;67.60;;;;;;4999051;28;20030;-65
2021/12/25 10:28:08;;;;;;;12.32;4.18;;;17.80;67.70;;;;;;5006532;28;20026;-63
2021/12/25 10:30:47;;;;;;;11.07;4.45;;;17.80;67.80;;;;;;5006325;28;20037;-63
2021/12/25 10:33:26;;;;;;;12.48;4.80;;;17.80;67.70;;;;;;5006489;28;20566;-63
2021/12/25 10:35:52;;;;;;;10.82;4.13;;;17.90;67.80;;;;;;5001182;28;20034;-66
2021/12/25 10:38:17;;;;;;;12.98;4.50;;;17.90;67.80;;;;;;5006851;28;20057;-64
2021/12/25 10:40:43;;;;;;;14.50;4.30;;;17.90;67.80;;;;;;5006156;28;20025;-64
2021/12/25 10:43:21;;;;;;;11.80;5.13;;;17.90;67.40;;;;;;5006702;28;20111;-64
2021/12/25 10:45:59;;;;;;;13.18;5.18;;;17.90;66.90;;;;;;5001137;28;20033;-63
2021/12/25 10:48:27;;;;;;;16.55;6.60;;;17.90;66.80;;;;;;5004848;28;20085;-65
2021/12/25 10:50:52;;;;;;;15.98;5.65;;;17.90;66.70;;;;;;4988367;28;20033;-64
2021/12/25 10:53:29;;;;;;;15.50;5.63;;;17.90;66.70;;;;;;5006341;28;20021;-64
2021/12/25 10:56:08;;;;;;;19.83;5.95;;;17.90;66.90;;;;;;5006496;28;20030;-64
2021/12/25 10:58:33;;;;;;;21.23;5.85;;;17.90;67.50;;;;;;5004429;28;20041;-64
2021/12/25 11:00:59;;;;;;;14.50;5.45;;;17.90;67.30;;;;;;5004378;28;20033;-64
2021/12/25 11:03:33;;;;;;;18.08;5.70;;;17.90;66.90;;;;;;5004153;28;20569;-63
2021/12/25 11:06:07;;;;;;;15.60;5.30;;;17.90;67.70;;;;;;5006793;28;20049;-63
2021/12/25 11:08:34;;;;;;;15.13;5.75;;;17.90;69.10;;;;;;5006655;28;20716;-63
2021/12/25 11:11:13;;;;;;;16.77;6.40;;;18.00;69.40;;;;;;5006540;28;20033;-62
2021/12/25 11:13:48;;;;;;;13.55;5.68;;;17.90;69.30;;;;;;5005921;28;20088;-64
2021/12/25 11:16:31;;;;;;;17.27;5.38;;;17.90;68.90;;;;;;5005253;28;20026;-64
2021/12/25 11:19:14;;;;;;;15.50;5.43;;;17.90;68.60;;;;;;5004847;28;20112;-65
2021/12/25 11:21:46;;;;;;;15.93;5.95;;;17.90;68.40;;;;;;5005513;28;20038;-65
2021/12/25 11:24:21;;;;;;;16.45;5.75;;;17.90;68.50;;;;;;5009510;28;20134;-64
2021/12/25 11:26:52;;;;;;;16.95;6.22;;;17.90;68.80;;;;;;5004287;28;20026;-66
2021/12/25 11:29:19;;;;;;;18.70;6.90;;;17.90;69.50;;;;;;5003432;28;20036;-65
2021/12/25 11:31:46;;;;;;;15.88;6.65;;;17.90;70.20;;;;;;5005790;28;20079;-63
2021/12/25 11:34:11;;;;;;;15.43;6.68;;;17.90;70.60;;;;;;4997249;28;20042;-64
2021/12/25 11:36:41;;;;;;;14.98;6.60;;;17.90;70.40;;;;;;5005271;28;20398;-64
2021/12/25 11:39:06;;;;;;;10.73;6.10;;;17.90;69.70;;;;;;5010996;28;20417;-65
2021/12/25 11:41:33;;;;;;;12.98;6.47;;;17.90;69.30;;;;;;5005399;28;20029;-64
2021/12/25 11:44:00;;;;;;;12.98;6.25;;;17.90;69.10;;;;;;5004345;28;20069;-64
2021/12/25 11:46:41;;;;;;;23.92;9.20;;;17.90;69.30;;;;;;5005187;28;20105;-63
2021/12/25 11:49:14;;;;;;;58.33;14.43;;;17.90;69.20;;;;;;5005072;28;20041;-63
2021/12/25 11:51:42;;;;;;;49.58;14.80;;;17.90;69.40;;;;;;5001564;28;20030;-63
2021/12/25 11:54:54;;;;;;;46.55;15.45;;;17.90;69.30;;;;;;5005030;28;20021;-63
2021/12/25 11:59:49;;;;;;;38.00;14.60;;;17.80;70.20;;;;;;5005683;28;20029;-63
2021/12/25 12:02:40;;;;;;;32.92;12.48;;;17.90;71.40;;;;;;5005179;28;20060;-62
2021/12/25 12:05:25;;;;;;;35.40;13.15;;;17.90;72.20;;;;;;5002880;28;20548;-62
2021/12/25 12:08:15;;;;;;;36.05;12.32;;;17.90;72.40;;;;;;5004449;28;20038;-62
2021/12/25 12:10:44;;;;;;;33.42;10.85;;;17.90;73.10;;;;;;4997242;28;20021;-62
2021/12/25 12:13:26;;;;;;;34.75;10.98;;;17.90;73.00;;;;;;5004534;28;20076;-61
2021/12/25 12:16:02;;;;;;;21.70;10.10;;;17.90;73.20;;;;;;5004437;28;20117;-61
2021/12/25 12:18:30;;;;;;;27.33;10.30;;;17.90;73.20;;;;;;5003953;28;20437;-61
2021/12/25 12:21:10;;;;;;;25.15;10.32;;;17.90;72.80;;;;;;5005331;28;20109;-61
2021/12/25 12:26:09;;;;;;;17.48;8.43;;;17.90;72.40;;;;;;5005035;28;20033;-61
2021/12/25 12:28:52;;;;;;;21.30;9.48;;;17.90;72.20;;;;;;5000123;28;20030;-61
2021/12/25 12:31:38;;;;;;;19.77;8.00;;;17.90;71.90;;;;;;4990870;28;20044;-61
2021/12/25 12:34:29;;;;;;;16.02;8.05;;;17.90;71.60;;;;;;5004202;28;20021;-61
2021/12/25 12:37:13;;;;;;;18.25;8.20;;;18.00;71.40;;;;;;5003292;28;20231;-63
2021/12/25 12:40:03;;;;;;;14.10;8.02;;;18.00;71.10;;;;;;5002904;28;20657;-63
2021/12/25 12:42:41;;;;;;;23.33;10.23;;;18.00;70.70;;;;;;5003343;28;20026;-62
2021/12/25 12:45:30;;;;;;;23.55;10.98;;;18.00;70.40;;;;;;5003830;28;20022;-63
2021/12/25 12:48:15;;;;;;;22.00;11.65;;;17.90;70.30;;;;;;5003708;28;20026;-63
2021/12/25 12:50:49;;;;;;;25.27;12.30;;;17.90;70.20;;;;;;5003766;28;20030;-62
2021/12/25 12:53:15;;;;;;;26.40;11.32;;;17.90;70.20;;;;;;5002582;28;20029;-63
2021/12/25 12:55:42;;;;;;;25.30;11.70;;;17.90;70.00;;;;;;5003583;28;20104;-62
2021/12/25 12:58:23;;;;;;;21.08;11.50;;;17.90;70.00;;;;;;5002986;28;20498;-63
2021/12/25 13:01:00;;;;;;;21.13;10.98;;;17.90;69.70;;;;;;5000544;28;20050;-63
2021/12/25 13:03:26;;;;;;;17.15;10.40;;;17.90;69.30;;;;;;4996257;28;20049;-63
2021/12/25 13:06:02;;;;;;;21.92;9.90;;;17.90;69.10;;;;;;5003615;28;20703;-63
2021/12/25 13:08:29;;;;;;;;;;;17.90;68.90;;;;;;5004104;28;20034;-61
2021/12/25 13:11:02;;;;;;;17.42;9.68;;;17.90;68.60;;;;;;5003583;28;20004;-63
2021/12/25 13:13:30;;;;;;;14.30;8.15;;;17.90;68.40;;;;;;4996242;28;20490;-62
2021/12/25 13:16:00;;;;;;;16.80;8.45;;;17.90;68.40;;;;;;5003763;28;20030;-61
2021/12/25 13:18:37;;;;;;;16.85;8.60;;;17.90;68.30;;;;;;5003256;28;20034;-62
2021/12/25 13:21:08;;;;;;;19.35;9.50;;;17.90;68.40;;;;;;5003994;28;20057;-62
2021/12/25 13:23:37;;;;;;;16.17;9.02;;;17.90;68.30;;;;;;5003298;28;20509;-62
2021/12/25 13:26:05;;;;;;;26.08;8.85;;;17.80;68.20;;;;;;5003805;28;20030;-61
2021/12/25 13:28:32;;;;;;;20.80;7.93;;;17.90;68.30;;;;;;5004419;28;20114;-63
2021/12/25 13:31:00;;;;;;;21.10;8.73;;;17.80;68.20;;;;;;5002551;28;20113;-63
2021/12/25 13:33:27;;;;;;;22.60;8.23;;;17.80;68.30;;;;;;5001853;28;20042;-63
2021/12/25 13:36:08;;;;;;;20.30;8.23;;;17.80;68.30;;;;;;5003881;28;20034;-63
2021/12/25 13:38:56;;;;;;;22.80;7.97;;;17.80;68.10;;;;;;5002725;28;20034;-63
2021/12/25 13:41:55;;;;;;;27.60;8.77;;;17.80;68.30;;;;;;4995336;28;20045;-62
2021/12/25 13:44:25;;;;;;;27.35;10.27;;;17.80;68.00;;;;;;4998844;28;20034;-62
2021/12/25 13:47:16;;;;;;;29.85;10.40;;;17.80;68.00;;;;;;5007704;28;20026;-62
2021/12/25 13:49:52;;;;;;;24.63;9.63;;;17.70;67.60;;;;;;5007556;28;20022;-64
2021/12/25 13:52:21;;;;;;;30.75;9.40;;;17.70;67.60;;;;;;5008366;28;20025;-64
2021/12/25 13:54:55;;;;;;;24.65;9.32;;;17.70;67.70;;;;;;5007788;28;20034;-64
2021/12/25 13:57:21;;;;;;;24.52;9.25;;;17.70;67.60;;;;;;5006130;28;20030;-65